Time;durP1;ratioP1;P1;durP2;ratioP2;P2;SDS_P1;SDS_P2;PMS_P1;PMS_P2;Temp;Humidity;BMP_temperature;BMP_pressure;BME280_temperature;BME280_humidity;BME280_pressure;Samples;Min_cycle;Max_cycle;Signal;HPM_P1;HPM_P2
2021/07/11 00:00:06;;;;;;;22.60;17.13;;;18.60;99.90;;;;;;5086948;28;20462;-81
2021/07/11 00:02:33;;;;;;;24.60;18.00;;;18.60;99.90;;;;;;5087726;28;20447;-80
2021/07/11 00:05:00;;;;;;;26.83;17.70;;;18.60;99.90;;;;;;5092518;28;20474;-82
2021/07/11 00:07:30;;;;;;;22.83;18.00;;;18.50;99.90;;;;;;5109005;28;20472;-81
2021/07/11 00:09:57;;;;;;;24.27;18.57;;;18.50;99.90;;;;;;5105889;28;20477;-80
2021/07/11 00:12:24;;;;;;;23.20;17.17;;;18.50;99.90;;;;;;5096491;28;20458;-80
2021/07/11 00:14:51;;;;;;;26.77;19.23;;;18.50;99.90;;;;;;5086624;28;20463;-81
2021/07/11 00:17:18;;;;;;;27.00;18.53;;;18.50;99.90;;;;;;5085882;28;20455;-81
2021/07/11 00:19:45;;;;;;;24.93;18.17;;;18.50;99.90;;;;;;5086459;28;20453;-82
2021/07/11 00:22:12;;;;;;;36.23;21.80;;;18.50;99.90;;;;;;5089226;28;20461;-81
2021/07/11 00:24:40;;;;;;;23.87;18.07;;;18.50;99.90;;;;;;5089697;28;20466;-81
2021/07/11 00:27:08;;;;;;;25.50;19.47;;;18.50;99.90;;;;;;5085212;28;20454;-80
2021/07/11 00:29:35;;;;;;;27.77;21.20;;;18.50;99.90;;;;;;5086314;28;20478;-81
2021/07/11 00:32:02;;;;;;;24.93;19.90;;;18.50;99.90;;;;;;5095564;28;20450;-80
2021/07/11 00:34:28;;;;;;;26.10;20.00;;;18.50;99.90;;;;;;5104866;28;20442;-81
2021/07/11 00:36:56;;;;;;;26.70;21.30;;;18.50;99.90;;;;;;5108640;28;20517;-81
2021/07/11 00:39:23;;;;;;;28.30;20.80;;;18.50;99.90;;;;;;5107455;28;20513;-81
2021/07/11 00:41:51;;;;;;;27.50;21.33;;;18.50;99.90;;;;;;5109058;28;20453;-80
2021/07/11 00:44:18;;;;;;;27.50;21.03;;;18.50;99.90;;;;;;5108537;28;20456;-78
2021/07/11 00:46:45;;;;;;;30.40;22.47;;;18.50;99.90;;;;;;5089220;28;20442;-80
2021/07/11 00:49:12;;;;;;;32.83;23.00;;;18.40;99.90;;;;;;5087619;28;20450;-80
2021/07/11 00:51:39;;;;;;;29.07;22.17;;;18.40;99.90;;;;;;5089299;28;20510;-80
2021/07/11 00:54:06;;;;;;;28.30;20.20;;;18.40;99.90;;;;;;5089888;28;20553;-81
2021/07/11 00:56:33;;;;;;;26.93;21.47;;;18.40;99.90;;;;;;5085417;28;20561;-78
2021/07/11 00:59:01;;;;;;;27.30;20.50;;;18.40;99.90;;;;;;5082381;28;20457;-80
2021/07/11 01:01:35;;;;;;;30.60;22.90;;;18.40;99.90;;;;;;5099098;28;20457;-81
2021/07/11 01:04:04;;;;;;;30.80;22.60;;;18.40;99.90;;;;;;5108543;28;20526;-81
2021/07/11 01:06:36;;;;;;;29.07;21.07;;;18.40;99.90;;;;;;5110522;28;20480;-81
2021/07/11 01:09:07;;;;;;;30.30;21.50;;;18.40;99.90;;;;;;5109220;28;20449;-79
2021/07/11 01:11:42;;;;;;;28.20;21.47;;;18.40;99.90;;;;;;5105543;28;20481;-78
2021/07/11 01:14:11;;;;;;;29.43;21.00;;;18.40;99.90;;;;;;5087799;28;20510;-81
2021/07/11 01:16:39;;;;;;;31.50;21.27;;;18.30;99.90;;;;;;5091185;28;20561;-81
2021/07/11 01:19:11;;;;;;;31.50;20.13;;;18.30;99.90;;;;;;5088473;28;20450;-78
2021/07/11 01:21:45;;;;;;;26.60;18.10;;;18.30;99.90;;;;;;5090520;28;20514;-81
2021/07/11 01:26:47;;;;;;;25.37;17.73;;;18.30;99.90;;;;;;5073509;22;20493;-81
2021/07/11 01:29:15;;;;;;;23.03;15.83;;;18.20;99.90;;;;;;5107694;28;20454;-80
2021/07/11 01:31:43;;;;;;;25.30;16.77;;;18.20;99.90;;;;;;5106222;28;20488;-80
2021/07/11 01:34:17;;;;;;;28.03;17.33;;;18.20;99.90;;;;;;5101877;28;20526;-81
2021/07/11 01:36:44;;;;;;;22.90;16.47;;;18.10;99.90;;;;;;5089950;28;20446;-81
2021/07/11 01:39:11;;;;;;;22.73;15.40;;;18.10;99.90;;;;;;5081858;28;20533;-78
2021/07/11 01:41:39;;;;;;;23.87;15.13;;;18.10;99.90;;;;;;5081344;28;20837;-79
2021/07/11 01:44:09;;;;;;;19.30;12.90;;;18.10;99.90;;;;;;5079278;28;20458;-81
2021/07/11 01:46:39;;;;;;;20.53;13.40;;;18.00;99.90;;;;;;5058023;28;20464;-82
2021/07/11 01:49:06;;;;;;;18.60;12.00;;;18.00;99.90;;;;;;5066659;28;20481;-78
2021/07/11 01:51:33;;;;;;;25.03;13.77;;;18.00;99.90;;;;;;5065071;28;20480;-80
2021/07/11 01:54:00;;;;;;;21.63;12.93;;;18.00;99.90;;;;;;5071264;28;20459;-81
2021/07/11 01:56:32;;;;;;;24.90;15.73;;;17.90;99.90;;;;;;5064830;28;20914;-78
2021/07/11 01:58:59;;;;;;;20.70;11.97;;;17.90;99.90;;;;;;5078698;28;20530;-81
2021/07/11 02:01:27;;;;;;;23.30;13.27;;;17.90;99.90;;;;;;5088908;28;20439;-81
2021/07/11 02:03:54;;;;;;;18.03;11.20;;;17.90;99.90;;;;;;5089897;28;20530;-82
2021/07/11 02:06:20;;;;;;;16.20;10.50;;;17.90;99.90;;;;;;5090364;28;20467;-81
2021/07/11 02:08:47;;;;;;;19.37;10.50;;;17.90;99.90;;;;;;5086256;28;20530;-80
2021/07/11 02:11:16;;;;;;;17.73;10.60;;;17.90;99.90;;;;;;5082967;28;20485;-79
2021/07/11 02:13:47;;;;;;;17.40;10.40;;;17.80;99.90;;;;;;5064045;28;20815;-81
2021/07/11 02:16:21;;;;;;;19.63;11.30;;;17.80;99.90;;;;;;5056142;28;20506;-83
2021/07/11 02:18:52;;;;;;;18.90;11.27;;;17.80;99.90;;;;;;5069460;28;20527;-81
2021/07/11 02:21:21;;;;;;;17.17;11.10;;;17.80;99.90;;;;;;5069395;28;20587;-81
2021/07/11 02:23:50;;;;;;;19.20;11.43;;;17.80;99.90;;;;;;5069310;28;20458;-81
2021/07/11 02:26:17;;;;;;;17.80;10.73;;;17.70;99.90;;;;;;5067785;28;20479;-81
2021/07/11 02:28:45;;;;;;;17.50;10.87;;;17.70;99.90;;;;;;5067426;28;20464;-82
2021/07/11 02:31:13;;;;;;;18.03;11.17;;;17.70;99.90;;;;;;5068613;28;20488;-82
2021/07/11 02:33:42;;;;;;;19.97;9.93;;;17.70;99.90;;;;;;5068866;28;20497;-82
2021/07/11 02:36:17;;;;;;;19.07;11.40;;;17.60;99.90;;;;;;5068148;28;20475;-81
2021/07/11 02:38:50;;;;;;;18.23;10.90;;;17.70;99.90;;;;;;5068322;28;20471;-81
2021/07/11 02:41:19;;;;;;;20.80;10.90;;;17.60;99.90;;;;;;5070186;28;20980;-80
2021/07/11 02:43:49;;;;;;;18.60;11.33;;;17.70;99.90;;;;;;5065624;28;20487;-82
2021/07/11 02:46:21;;;;;;;20.33;12.13;;;17.70;99.90;;;;;;5067913;28;20474;-82
2021/07/11 02:48:58;;;;;;;20.00;11.70;;;17.70;99.90;;;;;;5063780;28;20456;-79
2021/07/11 02:51:31;;;;;;;20.07;11.23;;;17.70;99.90;;;;;;5061868;28;20510;-81
2021/07/11 02:54:01;;;;;;;20.37;12.00;;;17.70;99.90;;;;;;5067712;28;20487;-81
2021/07/11 02:56:34;;;;;;;17.63;11.23;;;17.70;99.90;;;;;;5066432;28;20466;-78
2021/07/11 02:59:02;;;;;;;20.37;12.23;;;17.70;99.90;;;;;;5065095;28;20456;-83
2021/07/11 03:01:31;;;;;;;20.90;12.13;;;17.70;99.90;;;;;;5068361;28;20475;-83
2021/07/11 03:04:00;;;;;;;21.83;13.00;;;17.70;99.90;;;;;;5072188;28;20455;-81
2021/07/11 03:06:31;;;;;;;21.60;11.97;;;17.70;99.90;;;;;;5074067;28;20480;-81
2021/07/11 03:08:58;;;;;;;18.90;12.40;;;17.70;99.90;;;;;;5065092;28;20452;-82
2021/07/11 03:11:26;;;;;;;19.90;12.37;;;17.70;99.90;;;;;;5069720;28;20496;-82
2021/07/11 03:13:55;;;;;;;24.80;13.77;;;17.70;99.90;;;;;;5069093;28;20448;-81
2021/07/11 03:16:23;;;;;;;23.27;15.00;;;17.70;99.90;;;;;;5063611;28;21007;-81
2021/07/11 03:18:55;;;;;;;27.80;17.50;;;17.80;99.90;;;;;;5064711;28;20531;-80
2021/07/11 03:21:23;;;;;;;20.67;13.13;;;17.80;99.90;;;;;;5065266;28;20448;-80
2021/07/11 03:23:53;;;;;;;24.40;15.00;;;17.80;99.90;;;;;;5065725;28;20539;-81
2021/07/11 03:26:20;;;;;;;24.10;15.03;;;17.80;99.90;;;;;;5068869;28;20479;-81
2021/07/11 03:28:49;;;;;;;28.10;14.83;;;17.70;99.90;;;;;;5067400;28;20448;-81
2021/07/11 03:31:16;;;;;;;22.83;14.47;;;17.70;99.90;;;;;;5069156;28;20512;-80
2021/07/11 03:33:47;;;;;;;25.73;14.37;;;17.80;99.90;;;;;;5068916;28;20511;-81
2021/07/11 03:36:16;;;;;;;24.73;13.70;;;17.70;99.90;;;;;;5070195;28;20540;-82
2021/07/11 03:38:48;;;;;;;25.27;16.87;;;17.70;99.90;;;;;;5066660;28;20456;-79
2021/07/11 03:41:19;;;;;;;24.00;15.20;;;17.80;99.90;;;;;;5068444;28;20524;-83
2021/07/11 03:43:54;;;;;;;26.27;16.60;;;17.80;99.90;;;;;;5069013;28;20452;-82
2021/07/11 03:46:32;;;;;;;20.93;13.83;;;17.80;99.90;;;;;;5069059;28;20494;-80
2021/07/11 03:49:01;;;;;;;25.37;15.50;;;17.80;99.90;;;;;;5067466;28;20479;-83
2021/07/11 03:51:32;;;;;;;24.00;14.63;;;17.80;99.90;;;;;;5068248;28;20482;-82
2021/07/11 03:54:00;;;;;;;25.07;16.10;;;17.80;99.90;;;;;;5076472;28;20461;-82
2021/07/11 03:56:30;;;;;;;26.33;16.43;;;17.80;99.90;;;;;;5088582;28;21020;-83
2021/07/11 03:58:59;;;;;;;23.97;16.53;;;17.90;99.90;;;;;;5087634;28;20450;-82
2021/07/11 04:01:28;;;;;;;23.53;16.13;;;17.90;99.90;;;;;;5087809;28;20439;-83
2021/07/11 04:03:57;;;;;;;26.13;15.83;;;17.90;99.90;;;;;;5088060;28;20463;-83
2021/07/11 04:06:32;;;;;;;28.43;17.60;;;17.90;99.90;;;;;;5067059;28;20497;-80
2021/07/11 04:09:01;;;;;;;23.93;15.43;;;17.90;99.90;;;;;;5067486;28;20539;-82
2021/07/11 04:11:30;;;;;;;27.80;16.53;;;17.90;99.90;;;;;;5068377;28;20479;-82
2021/07/11 04:13:57;;;;;;;25.80;16.70;;;17.90;99.90;;;;;;5068360;28;20444;-82
2021/07/11 04:16:27;;;;;;;28.13;16.40;;;17.90;99.90;;;;;;5068030;28;20472;-82
2021/07/11 04:18:56;;;;;;;30.03;17.33;;;17.90;99.90;;;;;;5066881;28;20440;-80
2021/07/11 04:21:27;;;;;;;26.50;17.67;;;17.90;99.90;;;;;;5074381;28;20443;-82
2021/07/11 04:23:57;;;;;;;22.53;15.00;;;17.90;99.90;;;;;;5088684;28;20458;-83
2021/07/11 04:26:24;;;;;;;26.77;17.47;;;17.90;99.90;;;;;;5089186;28;20508;-83
2021/07/11 04:28:54;;;;;;;26.10;16.97;;;17.90;99.90;;;;;;5087516;28;20443;-82
2021/07/11 04:31:21;;;;;;;25.33;17.33;;;17.90;99.90;;;;;;5085784;28;20913;-82
2021/07/11 04:33:49;;;;;;;25.83;16.70;;;17.90;99.90;;;;;;5086720;28;20978;-83
2021/07/11 04:36:16;;;;;;;26.93;16.50;;;17.90;99.90;;;;;;5085352;28;20473;-83
2021/07/11 04:38:42;;;;;;;27.33;19.13;;;17.90;99.90;;;;;;5083984;28;20773;-82
2021/07/11 04:41:11;;;;;;;28.77;18.30;;;17.90;99.90;;;;;;5086934;28;20450;-82
2021/07/11 04:43:38;;;;;;;28.33;19.60;;;17.90;99.90;;;;;;5086051;28;20454;-83
2021/07/11 04:46:06;;;;;;;27.80;17.73;;;17.90;99.90;;;;;;5086308;28;20478;-83
2021/07/11 04:48:33;;;;;;;27.57;17.03;;;18.00;99.90;;;;;;5085637;28;20462;-83
2021/07/11 04:51:00;;;;;;;27.20;17.07;;;18.00;99.90;;;;;;5086443;28;21078;-84
2021/07/11 04:53:28;;;;;;;31.03;21.30;;;18.00;99.90;;;;;;5070917;28;20444;-84
2021/07/11 04:55:56;;;;;;;32.63;21.93;;;18.00;99.90;;;;;;5065869;28;20517;-84
2021/07/11 04:58:23;;;;;;;33.73;22.83;;;18.00;99.90;;;;;;5082096;28;20865;-84
2021/07/11 05:00:50;;;;;;;32.87;22.13;;;18.00;99.90;;;;;;5084544;28;20457;-86
2021/07/11 05:03:18;;;;;;;35.23;22.00;;;18.00;99.90;;;;;;5085378;28;20443;-84
2021/07/11 05:05:45;;;;;;;32.90;21.70;;;18.00;99.90;;;;;;5088628;28;20486;-84
2021/07/11 05:08:11;;;;;;;33.17;21.20;;;18.00;99.90;;;;;;5087929;28;20558;-83
2021/07/11 05:10:38;;;;;;;31.97;21.77;;;18.00;99.90;;;;;;5082276;28;20566;-84
2021/07/11 05:13:05;;;;;;;30.03;20.30;;;18.10;99.90;;;;;;5067890;28;20453;-83
2021/07/11 05:15:32;;;;;;;28.10;19.30;;;18.10;99.90;;;;;;5068680;28;20463;-86
2021/07/11 05:17:59;;;;;;;28.17;19.50;;;18.00;99.90;;;;;;5067891;28;20448;-84
2021/07/11 05:20:27;;;;;;;29.67;18.80;;;18.00;99.90;;;;;;5061136;28;20454;-83
2021/07/11 05:22:54;;;;;;;31.23;19.47;;;18.10;99.90;;;;;;5063592;28;20951;-83
2021/07/11 05:25:21;;;;;;;32.43;20.70;;;18.10;99.90;;;;;;5060430;28;20478;-85
2021/07/11 05:27:49;;;;;;;33.67;20.80;;;18.10;99.90;;;;;;5069186;28;20466;-84
2021/07/11 05:30:17;;;;;;;28.73;19.57;;;18.10;99.90;;;;;;5080034;28;20447;-84
2021/07/11 05:32:44;;;;;;;29.13;19.13;;;18.20;99.90;;;;;;5082110;28;20489;-85
2021/07/11 05:35:12;;;;;;;28.83;19.37;;;18.10;99.90;;;;;;5081638;28;21476;-84
2021/07/11 05:37:40;;;;;;;28.37;18.90;;;18.20;99.90;;;;;;5080773;28;20538;-84
2021/07/11 05:40:07;;;;;;;29.23;19.17;;;18.20;99.90;;;;;;5080535;28;20451;-84
2021/07/11 05:42:34;;;;;;;30.40;18.90;;;18.30;99.90;;;;;;5081536;28;20451;-85
2021/07/11 05:45:01;;;;;;;27.30;18.90;;;18.30;99.90;;;;;;5080119;28;20506;-85
2021/07/11 05:47:28;;;;;;;28.87;18.83;;;18.30;99.90;;;;;;5081165;28;20542;-85
2021/07/11 05:49:55;;;;;;;28.93;19.30;;;18.30;99.90;;;;;;5081230;28;20538;-85
2021/07/11 05:52:22;;;;;;;27.27;17.60;;;18.30;99.90;;;;;;5081033;28;20489;-82
2021/07/11 05:54:50;;;;;;;27.13;18.37;;;18.30;99.90;;;;;;5082037;28;20471;-83
2021/07/11 05:57:18;;;;;;;24.30;15.33;;;18.30;99.90;;;;;;5081762;28;20446;-82
2021/07/11 05:59:45;;;;;;;25.60;16.73;;;18.30;99.90;;;;;;5071678;28;20455;-83
2021/07/11 06:02:12;;;;;;;24.03;16.53;;;18.40;99.90;;;;;;5064596;28;20900;-84
2021/07/11 06:04:39;;;;;;;27.10;18.10;;;18.40;99.90;;;;;;5053996;28;20467;-85
2021/07/11 06:07:06;;;;;;;26.67;18.73;;;18.50;99.90;;;;;;5061843;28;20455;-85
2021/07/11 06:09:33;;;;;;;27.37;17.97;;;18.50;99.90;;;;;;5059085;28;20456;-83
2021/07/11 06:12:01;;;;;;;26.10;17.10;;;18.50;99.90;;;;;;5059072;28;21007;-85
2021/07/11 06:14:28;;;;;;;25.03;17.20;;;18.50;99.90;;;;;;5051734;28;20911;-85
2021/07/11 06:16:54;;;;;;;26.80;18.53;;;18.60;99.90;;;;;;5061476;28;20543;-85
2021/07/11 06:19:21;;;;;;;25.27;15.00;;;18.60;99.90;;;;;;5060562;28;20458;-85
2021/07/11 06:21:49;;;;;;;25.80;17.77;;;18.50;99.90;;;;;;5058831;28;20472;-85
2021/07/11 06:24:16;;;;;;;26.43;17.63;;;18.50;99.90;;;;;;5052801;28;20455;-85
2021/07/11 06:26:46;;;;;;;26.00;17.90;;;18.50;99.90;;;;;;5057095;28;20971;-86
2021/07/11 06:29:15;;;;;;;29.13;17.43;;;18.50;99.90;;;;;;5055340;28;20538;-84
2021/07/11 06:31:41;;;;;;;25.50;17.40;;;18.60;99.90;;;;;;5057396;28;20486;-85
2021/07/11 06:34:08;;;;;;;28.23;17.67;;;18.60;99.90;;;;;;5061454;28;20448;-85
2021/07/11 06:36:35;;;;;;;25.83;17.13;;;18.60;99.90;;;;;;5057605;28;20472;-84
2021/07/11 06:39:07;;;;;;;31.23;18.90;;;18.60;99.90;;;;;;5056972;28;20448;-85
2021/07/11 06:41:34;;;;;;;26.90;17.77;;;18.60;99.90;;;;;;5058457;28;20435;-83
2021/07/11 06:44:01;;;;;;;29.40;19.97;;;18.60;99.90;;;;;;5058650;28;20789;-85
2021/07/11 06:46:29;;;;;;;31.10;19.67;;;18.60;99.90;;;;;;5058051;28;20470;-85
2021/07/11 06:48:56;;;;;;;32.83;20.53;;;18.60;99.90;;;;;;5058450;28;20452;-85
2021/07/11 06:51:26;;;;;;;28.30;19.13;;;18.60;99.90;;;;;;5058527;28;20531;-85
2021/07/11 06:53:53;;;;;;;29.20;19.70;;;18.60;99.90;;;;;;5059754;28;20447;-85
2021/07/11 06:56:20;;;;;;;31.27;23.03;;;18.70;99.90;;;;;;5058691;28;20495;-85
2021/07/11 06:58:47;;;;;;;27.73;20.57;;;18.80;99.90;;;;;;5057394;28;20483;-86
2021/07/11 07:01:14;;;;;;;34.70;21.77;;;18.80;99.90;;;;;;5057761;28;20487;-84
2021/07/11 07:03:42;;;;;;;32.10;22.07;;;18.90;99.90;;;;;;5058596;28;20460;-85
2021/07/11 07:06:09;;;;;;;31.30;19.87;;;18.90;99.90;;;;;;5058097;28;20472;-85
2021/07/11 07:08:35;;;;;;;34.13;22.13;;;18.90;99.90;;;;;;5055764;28;20451;-85
2021/07/11 07:11:03;;;;;;;35.43;22.70;;;18.80;99.90;;;;;;5061875;28;20456;-85
2021/07/11 07:13:30;;;;;;;32.00;21.23;;;18.90;99.90;;;;;;5057660;28;20907;-85
2021/07/11 07:15:57;;;;;;;34.50;22.93;;;18.80;99.90;;;;;;5063797;28;20469;-85
2021/07/11 07:18:24;;;;;;;36.70;23.00;;;18.80;99.90;;;;;;5057510;28;20846;-87
2021/07/11 07:20:52;;;;;;;35.60;24.70;;;18.80;99.90;;;;;;5059914;28;20475;-85
2021/07/11 07:23:19;;;;;;;34.60;24.53;;;18.80;99.90;;;;;;5047202;28;20484;-86
2021/07/11 07:25:46;;;;;;;37.87;26.20;;;18.90;99.90;;;;;;5051773;28;20573;-86
2021/07/11 07:28:13;;;;;;;34.83;23.00;;;18.90;99.90;;;;;;5042377;28;20831;-85
2021/07/11 07:30:39;;;;;;;38.87;25.63;;;19.00;99.90;;;;;;5055309;28;20459;-85
2021/07/11 07:33:07;;;;;;;40.13;26.87;;;19.00;99.90;;;;;;5056266;28;20494;-87
2021/07/11 07:35:34;;;;;;;40.83;28.13;;;19.00;99.90;;;;;;5054986;28;20480;-86
2021/07/11 07:38:03;;;;;;;33.73;25.00;;;19.10;99.90;;;;;;5055701;28;20456;-86
2021/07/11 07:40:30;;;;;;;34.90;26.27;;;19.20;99.90;;;;;;5061046;28;20474;-85
2021/07/11 07:42:57;;;;;;;35.90;24.57;;;19.30;99.90;;;;;;5052670;28;20533;-86
2021/07/11 07:45:25;;;;;;;38.63;26.77;;;19.40;99.90;;;;;;5055107;28;20499;-85
2021/07/11 07:47:52;;;;;;;40.27;27.57;;;19.40;99.90;;;;;;5062623;28;20511;-85
2021/07/11 07:50:19;;;;;;;39.33;27.87;;;19.40;99.90;;;;;;5069500;28;20452;-88
2021/07/11 07:52:46;;;;;;;37.37;25.27;;;19.30;99.90;;;;;;5063232;28;20477;-85
2021/07/11 07:55:14;;;;;;;37.80;25.20;;;19.30;99.90;;;;;;5055599;28;20500;-86
2021/07/11 07:57:41;;;;;;;34.47;23.60;;;19.30;99.90;;;;;;5060100;28;20508;-87
2021/07/11 08:00:55;;;;;;;31.73;23.20;;;19.30;99.90;;;;;;5061387;28;20459;-86
2021/07/11 08:03:22;;;;;;;33.13;22.23;;;19.40;99.90;;;;;;5060592;28;20466;-87
2021/07/11 08:05:49;;;;;;;34.60;22.57;;;19.40;99.90;;;;;;5051898;28;20566;-87
2021/07/11 08:08:16;;;;;;;30.67;21.87;;;19.40;99.90;;;;;;5059242;28;20451;-85
2021/07/11 08:10:44;;;;;;;30.33;20.90;;;19.40;99.90;;;;;;5058936;28;20515;-84
2021/07/11 08:13:11;;;;;;;29.23;21.20;;;19.50;99.90;;;;;;5064635;28;20543;-85
2021/07/11 08:15:38;;;;;;;32.00;22.17;;;19.60;99.90;;;;;;5062824;28;20532;-86
2021/07/11 08:18:05;;;;;;;27.13;19.80;;;19.80;99.90;;;;;;5059786;28;20823;-86
2021/07/11 08:20:32;;;;;;;29.50;20.30;;;19.90;99.90;;;;;;5057563;28;20448;-86
2021/07/11 08:22:59;;;;;;;29.87;20.97;;;20.10;99.90;;;;;;5059937;28;20507;-86
2021/07/11 08:25:26;;;;;;;33.57;22.40;;;20.10;99.90;;;;;;5061779;28;20507;-87
2021/07/11 08:27:54;;;;;;;33.23;23.10;;;20.30;99.90;;;;;;5053487;28;20462;-86
2021/07/11 08:30:21;;;;;;;30.60;21.83;;;20.60;99.90;;;;;;5056491;28;20450;-86
2021/07/11 08:32:48;;;;;;;29.20;20.53;;;20.60;99.90;;;;;;5055415;28;21028;-85
2021/07/11 08:35:15;;;;;;;29.63;20.67;;;20.50;99.90;;;;;;5058423;28;20475;-85
2021/07/11 08:37:42;;;;;;;28.30;18.90;;;20.70;99.90;;;;;;5065541;28;20452;-85
2021/07/11 08:40:12;;;;;;;28.93;20.63;;;20.70;99.90;;;;;;5081167;28;20485;-85
2021/07/11 08:42:40;;;;;;;28.57;19.87;;;20.70;99.90;;;;;;5082989;28;20453;-85
2021/07/11 08:45:10;;;;;;;26.00;17.37;;;20.80;99.90;;;;;;5084351;28;20479;-86
2021/07/11 08:47:38;;;;;;;25.60;16.80;;;20.70;99.90;;;;;;5082433;28;20454;-84
2021/07/11 08:50:07;;;;;;;25.93;17.87;;;20.70;99.90;;;;;;5082281;28;20898;-85
2021/07/11 08:52:35;;;;;;;22.93;15.77;;;20.70;99.90;;;;;;5086820;28;20479;-84
2021/07/11 08:55:02;;;;;;;29.40;19.10;;;20.70;99.90;;;;;;5095790;28;20485;-85
2021/07/11 08:57:29;;;;;;;24.37;16.93;;;20.80;99.90;;;;;;5097335;28;20447;-85
2021/07/11 08:59:56;;;;;;;23.30;14.70;;;21.00;99.90;;;;;;5098004;28;20465;-85
2021/07/11 09:02:24;;;;;;;23.80;14.40;;;21.10;99.90;;;;;;5098545;28;20514;-84
2021/07/11 09:04:50;;;;;;;26.07;14.80;;;21.20;99.90;;;;;;5098919;28;20471;-85
2021/07/11 09:07:19;;;;;;;25.23;15.73;;;21.10;99.90;;;;;;5098136;28;20443;-86
2021/07/11 09:09:46;;;;;;;25.40;15.53;;;21.00;99.90;;;;;;5094870;28;20480;-88
2021/07/11 09:12:13;;;;;;;23.57;14.80;;;21.10;99.90;;;;;;5098574;28;20538;-85
2021/07/11 09:14:42;;;;;;;28.23;17.20;;;21.30;99.90;;;;;;5079638;28;20468;-86
2021/07/11 09:17:10;;;;;;;29.57;18.00;;;21.40;99.90;;;;;;5068478;28;20524;-85
2021/07/11 09:19:41;;;;;;;25.93;16.97;;;21.40;99.90;;;;;;5062936;28;20464;-85
2021/07/11 09:22:10;;;;;;;31.67;18.87;;;21.20;99.90;;;;;;5062776;28;20483;-84
2021/07/11 09:24:39;;;;;;;30.70;20.43;;;21.10;99.90;;;;;;5061050;28;20531;-85
2021/07/11 09:27:08;;;;;;;32.77;22.20;;;20.90;99.90;;;;;;5061600;28;20546;-85
2021/07/11 09:29:36;;;;;;;33.83;21.13;;;20.70;99.90;;;;;;5064153;28;20451;-84
2021/07/11 09:32:04;;;;;;;38.10;24.47;;;20.70;99.90;;;;;;5081972;28;20451;-85
2021/07/11 09:34:35;;;;;;;39.73;25.67;;;20.60;99.90;;;;;;5079920;28;20529;-85
2021/07/11 09:37:13;;;;;;;36.10;22.57;;;20.50;99.90;;;;;;5079164;28;20464;-86
2021/07/11 09:39:51;;;;;;;39.70;24.97;;;20.70;99.90;;;;;;5080473;28;20419;-85
2021/07/11 09:42:39;;;;;;;41.13;24.70;;;20.80;99.90;;;;;;5080905;28;20534;-86
2021/07/11 09:45:15;;;;;;;44.70;25.30;;;20.90;99.90;;;;;;5070453;28;20851;-86
2021/07/11 09:47:42;;;;;;;39.87;24.13;;;20.80;99.90;;;;;;5080009;28;20532;-86
2021/07/11 09:50:13;;;;;;;41.43;26.40;;;20.80;99.90;;;;;;5078906;28;20455;-85
2021/07/11 09:52:44;;;;;;;41.53;25.00;;;20.70;99.90;;;;;;5079967;28;20565;-85
2021/07/11 09:55:14;;;;;;;45.87;27.20;;;20.60;99.90;;;;;;5078845;28;20470;-86
2021/07/11 09:57:43;;;;;;;44.60;27.70;;;20.60;99.90;;;;;;5079077;28;20444;-86
2021/07/11 10:00:16;;;;;;;48.27;29.33;;;20.70;99.90;;;;;;5088025;28;20495;-87
2021/07/11 10:02:45;;;;;;;43.43;26.30;;;20.70;99.90;;;;;;5079677;28;20490;-88
2021/07/11 10:05:13;;;;;;;42.27;26.77;;;20.70;99.90;;;;;;5079052;28;20440;-87
2021/07/11 10:07:42;;;;;;;42.47;28.17;;;20.80;99.90;;;;;;5079646;28;20479;-86
2021/07/11 10:10:10;;;;;;;45.47;27.20;;;20.90;99.90;;;;;;5077464;28;20432;-88
2021/07/11 10:12:38;;;;;;;42.37;27.50;;;20.90;99.90;;;;;;5079255;28;20473;-88
2021/07/11 10:15:11;;;;;;;41.67;27.10;;;20.80;99.90;;;;;;5079458;28;20475;-87
2021/07/11 10:17:39;;;;;;;44.70;29.20;;;21.00;99.90;;;;;;5083328;28;20444;-87
2021/07/11 10:20:07;;;;;;;45.70;29.50;;;21.10;99.90;;;;;;5094006;28;20431;-88
2021/07/11 10:22:44;;;;;;;56.93;32.33;;;21.30;99.90;;;;;;5097842;28;20497;-87
2021/07/11 10:25:17;;;;;;;46.20;28.40;;;21.40;99.90;;;;;;5098535;28;20560;-90
2021/07/11 10:27:44;;;;;;;45.80;31.70;;;21.40;99.90;;;;;;5098930;28;20502;-87
2021/07/11 10:30:11;;;;;;;46.70;31.20;;;21.40;99.90;;;;;;5096700;28;20431;-86
2021/07/11 10:32:38;;;;;;;44.30;29.20;;;21.60;99.90;;;;;;5074166;28;20557;-88
2021/07/11 10:35:14;;;;;;;44.63;31.27;;;21.80;99.90;;;;;;5063189;28;20468;-87
2021/07/11 10:37:49;;;;;;;47.43;31.83;;;21.90;99.90;;;;;;5055565;28;20486;-86
2021/07/11 10:40:19;;;;;;;48.57;31.67;;;21.70;99.90;;;;;;5055582;28;20451;-87
2021/07/11 10:42:47;;;;;;;47.97;31.27;;;21.50;99.90;;;;;;5054536;28;20444;-86
2021/07/11 10:45:16;;;;;;;48.70;32.37;;;21.40;99.90;;;;;;5054767;28;20474;-86
2021/07/11 10:47:43;;;;;;;51.83;34.47;;;21.20;99.90;;;;;;5054166;28;20875;-86
2021/07/11 10:50:23;;;;;;;46.80;32.53;;;21.10;99.90;;;;;;5054332;28;20455;-87
2021/07/11 10:52:51;;;;;;;45.50;30.47;;;21.10;99.90;;;;;;5053056;28;21064;-87
2021/07/11 10:55:19;;;;;;;42.60;29.93;;;20.90;99.90;;;;;;5053839;28;20550;-87
2021/07/11 10:57:46;;;;;;;45.00;29.73;;;21.00;99.90;;;;;;5053135;28;20454;-88
2021/07/11 11:00:17;;;;;;;40.87;27.63;;;21.10;99.90;;;;;;5054809;28;20467;-87
2021/07/11 11:02:46;;;;;;;40.70;27.17;;;21.20;99.90;;;;;;5053934;28;20424;-86
2021/07/11 11:05:16;;;;;;;48.40;29.77;;;21.30;99.90;;;;;;5059780;28;20897;-86
2021/07/11 11:07:48;;;;;;;42.27;27.97;;;21.20;99.90;;;;;;5073779;28;20462;-87
2021/07/11 11:10:25;;;;;;;37.77;25.80;;;21.10;99.90;;;;;;5072227;28;20995;-87
2021/07/11 11:13:11;;;;;;;38.17;26.17;;;21.00;99.90;;;;;;5073426;28;20483;-88
2021/07/11 11:15:49;;;;;;;48.03;29.43;;;21.00;99.90;;;;;;5085768;28;20478;-88
2021/07/11 11:18:19;;;;;;;43.57;30.67;;;21.10;99.90;;;;;;5097023;28;20502;-87
2021/07/11 11:20:52;;;;;;;37.17;25.70;;;21.20;99.90;;;;;;5096267;28;20443;-87
2021/07/11 11:23:22;;;;;;;44.00;26.03;;;21.40;99.90;;;;;;5088113;28;20521;-88
2021/07/11 11:25:51;;;;;;;38.53;25.97;;;21.70;99.90;;;;;;5078326;28;20481;-87
2021/07/11 11:28:30;;;;;;;39.00;25.90;;;22.00;99.90;;;;;;5076096;28;20554;-85
2021/07/11 11:31:13;;;;;;;39.60;27.00;;;22.40;99.90;;;;;;5078130;28;20442;-87
2021/07/11 11:33:57;;;;;;;36.20;26.07;;;22.60;99.90;;;;;;5076144;28;20481;-87
2021/07/11 11:36:27;;;;;;;36.97;25.47;;;22.50;99.90;;;;;;5080805;28;20577;-87
2021/07/11 11:38:55;;;;;;;49.43;26.13;;;22.70;99.90;;;;;;5074487;28;20526;-86
2021/07/11 11:41:24;;;;;;;33.60;22.83;;;22.60;99.90;;;;;;5077022;28;20545;-87
2021/07/11 11:43:52;;;;;;;35.30;23.37;;;22.60;99.90;;;;;;5074691;28;20443;-87
2021/07/11 11:46:30;;;;;;;34.47;22.97;;;22.50;99.90;;;;;;5076723;28;20481;-87
2021/07/11 11:48:59;;;;;;;33.63;22.10;;;22.30;99.90;;;;;;5075810;28;20458;-87
2021/07/11 11:51:26;;;;;;;33.97;21.73;;;22.20;99.90;;;;;;5073677;28;20534;-84
2021/07/11 11:53:53;;;;;;;36.73;25.37;;;22.30;99.90;;;;;;5074140;28;20853;-84
2021/07/11 11:56:20;;;;;;;35.03;24.13;;;22.30;99.90;;;;;;5074228;28;20528;-84
2021/07/11 11:58:49;;;;;;;40.27;22.90;;;22.40;99.90;;;;;;5073119;28;20457;-85
2021/07/11 12:01:17;;;;;;;39.33;22.43;;;22.50;99.90;;;;;;5073246;28;20465;-86
2021/07/11 12:03:45;;;;;;;38.47;23.60;;;22.60;99.90;;;;;;5073222;28;20812;-85
2021/07/11 12:06:15;;;;;;;37.00;21.97;;;22.60;99.90;;;;;;5073319;28;20455;-85
2021/07/11 12:08:45;;;;;;;35.17;22.60;;;22.90;99.90;;;;;;5072825;28;20447;-86
2021/07/11 12:11:14;;;;;;;37.93;22.83;;;23.30;99.90;;;;;;5069452;28;20541;-86
2021/07/11 12:13:42;;;;;;;37.70;23.17;;;23.80;99.90;;;;;;5108463;22;20498;-84
2021/07/11 12:16:14;;;;;;;37.23;21.67;;;24.20;99.90;;;;;;5080699;28;20836;-85
2021/07/11 12:18:49;;;;;;;41.10;23.20;;;24.40;99.90;;;;;;5080147;28;20979;-85
2021/07/11 12:21:20;;;;;;;44.77;22.73;;;24.40;99.90;;;;;;5080293;28;20526;-84
2021/07/11 12:23:58;;;;;;;47.37;22.70;;;24.50;99.90;;;;;;5080717;28;20457;-85
2021/07/11 12:26:26;;;;;;;37.13;18.90;;;24.60;99.90;;;;;;5080267;28;20458;-84
2021/07/11 12:28:55;;;;;;;37.27;20.77;;;25.00;99.90;;;;;;5085953;28;20455;-85
2021/07/11 12:31:25;;;;;;;39.53;20.07;;;25.50;99.90;;;;;;5080043;28;21054;-85
2021/07/11 12:33:57;;;;;;;50.63;22.37;;;25.70;99.90;;;;;;5077261;28;20493;-84
2021/07/11 12:36:25;;;;;;;62.07;31.83;;;25.80;99.90;;;;;;5079468;28;20435;-84
2021/07/11 12:38:52;;;;;;;38.47;20.60;;;25.50;99.90;;;;;;5079912;28;20523;-83